createdAt,value
2022-12-18T00:01:31.752Z,32.88
2022-12-18T00:03:59.996Z,36.03
2022-12-18T00:06:30.048Z,33.97
2022-12-18T00:08:59.640Z,35.58
2022-12-18T00:11:30.275Z,34.92
2022-12-18T00:14:03.997Z,34.75
2022-12-18T00:16:36.855Z,36.72
2022-12-18T00:19:06.042Z,36.83
2022-12-18T00:21:34.846Z,35.65
2022-12-18T00:24:03.078Z,35.75
2022-12-18T00:26:33.514Z,35.53
2022-12-18T00:29:15.836Z,36.28
2022-12-18T00:31:45.554Z,35.05
2022-12-18T00:34:15.220Z,35.35
2022-12-18T00:36:43.502Z,33.45
2022-12-18T00:39:13.021Z,36.78
2022-12-18T00:41:59.846Z,35.60
2022-12-18T00:44:27.849Z,36.67
2022-12-18T00:46:55.774Z,36.53
2022-12-18T00:49:23.720Z,34.28
2022-12-18T00:51:51.663Z,35.95
2022-12-18T00:54:19.865Z,37.45
2022-12-18T00:56:49.855Z,38.13
2022-12-18T00:59:27.944Z,36.35
2022-12-18T01:01:56.042Z,38.20
2022-12-18T01:04:24.069Z,37.13
2022-12-18T01:06:52.201Z,36.53
2022-12-18T01:09:20.249Z,36.60
2022-12-18T01:11:48.147Z,39.95
2022-12-18T01:14:16.033Z,40.92
2022-12-18T01:16:44.061Z,42.20
2022-12-18T01:19:12.547Z,42.75
2022-12-18T01:21:40.491Z,40.50
2022-12-18T01:24:09.189Z,40.08
2022-12-18T01:26:37.171Z,42.15
2022-12-18T01:29:05.080Z,40.13
2022-12-18T01:31:35.400Z,39.05
2022-12-18T01:34:06.066Z,40.42
2022-12-18T01:36:38.877Z,40.13
2022-12-18T01:39:09.825Z,40.38
2022-12-18T01:42:03.911Z,40.50
2022-12-18T01:44:59.797Z,40.58
2022-12-18T01:47:47.571Z,41.65
2022-12-18T01:50:25.603Z,51.78
2022-12-18T01:53:00.132Z,47.28
2022-12-18T01:55:31.669Z,41.17
2022-12-18T01:58:01.549Z,40.83
2022-12-18T02:00:30.012Z,42.30
2022-12-18T02:02:58.231Z,39.78
2022-12-18T02:05:45.917Z,40.38
2022-12-18T02:08:25.638Z,41.53
2022-12-18T02:11:20.485Z,43.17
2022-12-18T02:14:18.906Z,42.65
2022-12-18T02:17:13.440Z,40.28
2022-12-18T02:20:03.297Z,42.17
2022-12-18T02:22:50.230Z,43.70
2022-12-18T02:25:55.347Z,41.63
2022-12-18T02:28:28.333Z,43.53
2022-12-18T02:31:08.472Z,43.17
2022-12-18T02:33:38.697Z,43.70
2022-12-18T02:36:11.557Z,42.60
2022-12-18T02:38:44.492Z,43.08
2022-12-18T02:41:16.192Z,47.95
2022-12-18T02:44:03.706Z,52.30
2022-12-18T02:46:37.825Z,51.65
2022-12-18T02:49:34.049Z,48.78
2022-12-18T02:52:24.116Z,48.55
2022-12-18T02:55:07.185Z,46.42
2022-12-18T02:57:50.288Z,45.75
2022-12-18T03:00:49.124Z,48.00
2022-12-18T03:03:32.118Z,46.60
2022-12-18T03:06:17.229Z,45.35
2022-12-18T03:08:51.078Z,47.75
2022-12-18T03:11:42.641Z,44.78
2022-12-18T03:14:13.538Z,45.65
2022-12-18T03:16:43.594Z,42.70
2022-12-18T03:19:23.695Z,42.28
2022-12-18T03:21:57.869Z,40.55
2022-12-18T03:24:29.952Z,43.75
2022-12-18T03:27:04.589Z,44.58
2022-12-18T03:29:47.359Z,41.33
2022-12-18T03:32:35.811Z,42.75
2022-12-18T03:35:07.566Z,40.05
2022-12-18T03:37:38.631Z,42.65
2022-12-18T03:40:08.208Z,43.75
2022-12-18T03:43:03.153Z,42.23
2022-12-18T03:45:40.235Z,39.38
2022-12-18T03:48:23.274Z,33.30
2022-12-18T03:51:10.079Z,38.90
2022-12-18T03:53:58.224Z,38.25
2022-12-18T03:56:35.700Z,38.15
2022-12-18T03:59:06.734Z,32.78
2022-12-18T04:01:39.427Z,31.17
2022-12-18T04:04:10.446Z,31.15
2022-12-18T04:06:41.211Z,31.67
2022-12-18T04:09:16.833Z,30.80
2022-12-18T04:11:48.828Z,26.58
2022-12-18T04:14:18.607Z,23.20
2022-12-18T04:16:50.305Z,22.58
2022-12-18T04:19:21.028Z,20.35
2022-12-18T04:21:51.792Z,20.73
2022-12-18T04:24:19.784Z,19.38
2022-12-18T04:26:59.360Z,18.58
2022-12-18T04:29:33.010Z,18.92
2022-12-18T04:32:01.116Z,17.67
2022-12-18T04:34:31.118Z,18.87
2022-12-18T04:36:59.988Z,18.98
2022-12-18T04:39:28.445Z,18.90
2022-12-18T04:42:04.026Z,18.35
2022-12-18T04:46:59.690Z,18.70
2022-12-18T04:49:27.656Z,17.65
2022-12-18T04:51:55.624Z,20.17
2022-12-18T04:54:23.622Z,17.95
2022-12-18T04:56:51.609Z,18.15
2022-12-18T04:59:19.574Z,19.17
2022-12-18T05:01:48.121Z,19.30
2022-12-18T05:04:20.466Z,18.83
2022-12-18T05:06:51.441Z,18.45
2022-12-18T05:11:50.187Z,16.83
2022-12-18T05:14:18.069Z,17.98
2022-12-18T05:16:45.934Z,19.23
2022-12-18T05:19:14.047Z,19.73
2022-12-18T05:21:42.289Z,20.02
2022-12-18T05:24:10.401Z,18.60
2022-12-18T05:26:38.359Z,20.88
2022-12-18T05:29:06.354Z,19.77
2022-12-18T05:31:39.044Z,19.60
2022-12-18T05:34:08.460Z,20.55
2022-12-18T05:36:36.452Z,18.85
2022-12-18T05:39:04.841Z,20.58
2022-12-18T05:41:34.116Z,20.25
2022-12-18T05:44:02.191Z,20.35
2022-12-18T05:46:30.230Z,20.50
2022-12-18T05:49:03.188Z,20.95
2022-12-18T05:51:31.128Z,20.33
2022-12-18T05:53:59.030Z,20.33
2022-12-18T05:56:26.950Z,21.88
2022-12-18T05:58:56.297Z,21.63
2022-12-18T06:01:27.165Z,20.75
2022-12-18T06:03:55.782Z,20.27
2022-12-18T06:06:29.589Z,21.90
2022-12-18T06:08:58.597Z,21.83
2022-12-18T06:11:28.289Z,21.40
2022-12-18T06:14:00.256Z,21.65
2022-12-18T06:16:30.065Z,20.98
2022-12-18T06:19:00.139Z,22.63
2022-12-18T06:21:29.444Z,20.08
2022-12-18T06:24:09.202Z,21.60
2022-12-18T06:26:40.973Z,20.83
2022-12-18T06:29:09.105Z,21.92
2022-12-18T06:31:37.031Z,27.52
2022-12-18T06:34:06.046Z,23.13
2022-12-18T06:36:34.443Z,22.00
2022-12-18T06:39:02.456Z,21.67
2022-12-18T06:41:30.365Z,21.40
2022-12-18T06:44:00.341Z,21.20
2022-12-18T06:46:28.744Z,21.27
2022-12-18T06:48:56.709Z,20.90
2022-12-18T06:51:27.306Z,21.77
2022-12-18T06:53:55.261Z,21.58
2022-12-18T06:56:23.250Z,22.38
2022-12-18T06:58:52.431Z,18.67
2022-12-18T07:01:20.722Z,21.45
2022-12-18T07:03:49.114Z,20.73
2022-12-18T07:06:19.705Z,20.92
2022-12-18T07:08:48.980Z,21.50
2022-12-18T07:11:17.751Z,20.17
2022-12-18T07:13:46.172Z,20.25
2022-12-18T07:16:22.585Z,20.00
2022-12-18T07:18:53.690Z,19.80
2022-12-18T07:21:22.194Z,20.30
2022-12-18T07:23:52.977Z,19.88
2022-12-18T07:26:25.406Z,18.20
2022-12-18T07:29:00.647Z,20.80
2022-12-18T07:31:29.197Z,20.65
2022-12-18T07:33:57.362Z,19.60
2022-12-18T07:36:25.535Z,18.90
2022-12-18T07:38:55.004Z,21.00
2022-12-18T07:41:23.194Z,20.58
2022-12-18T07:43:51.225Z,19.40
2022-12-18T07:46:19.500Z,18.60
2022-12-18T07:48:49.404Z,18.45
2022-12-18T07:51:20.481Z,20.02
2022-12-18T07:53:49.341Z,19.73
2022-12-18T07:56:29.481Z,19.40
2022-12-18T07:58:58.699Z,19.23
2022-12-18T08:01:30.169Z,18.92
2022-12-18T08:03:59.713Z,19.42
2022-12-18T08:06:27.925Z,18.90
2022-12-18T08:08:57.420Z,19.55
2022-12-18T08:11:27.188Z,20.15
2022-12-18T08:13:55.602Z,18.85
2022-12-18T08:16:24.842Z,19.23
2022-12-18T08:18:55.298Z,17.67
2022-12-18T08:21:26.699Z,18.08
2022-12-18T08:23:55.905Z,18.13
2022-12-18T08:36:02.378Z,18.45
2022-12-18T08:38:30.695Z,19.77
2022-12-18T08:41:11.525Z,19.20
2022-12-18T08:44:00.664Z,19.60
2022-12-18T08:46:33.232Z,20.38
2022-12-18T08:49:01.232Z,20.58
2022-12-18T08:51:32.172Z,19.10
2022-12-18T08:54:00.168Z,20.80
2022-12-18T08:56:28.108Z,20.42
2022-12-18T08:58:56.848Z,20.20
2022-12-18T09:01:25.228Z,21.15
2022-12-18T09:03:53.757Z,20.42
2022-12-18T09:06:24.429Z,19.63
2022-12-18T09:08:52.556Z,19.10
2022-12-18T09:11:26.846Z,18.63
2022-12-18T09:13:56.647Z,19.73
2022-12-18T09:16:30.373Z,20.02
2022-12-18T09:19:04.044Z,20.42
2022-12-18T09:21:37.504Z,19.58
2022-12-18T09:24:13.859Z,19.70
2022-12-18T09:26:41.721Z,19.67
2022-12-18T09:29:11.565Z,19.98
2022-12-18T09:31:40.414Z,20.48
2022-12-18T09:34:08.466Z,19.88
2022-12-18T09:36:36.445Z,17.65
2022-12-18T09:39:08.478Z,18.95
2022-12-18T09:41:46.135Z,19.17
2022-12-18T09:44:17.860Z,19.50
2022-12-18T09:46:55.974Z,20.02
2022-12-18T09:49:30.818Z,19.38
2022-12-18T09:52:14.315Z,19.42
2022-12-18T09:55:07.736Z,18.67
2022-12-18T09:57:41.695Z,20.00
2022-12-18T10:00:12.826Z,18.73
2022-12-18T10:02:40.932Z,17.70
2022-12-18T10:05:19.115Z,17.70
2022-12-18T10:08:08.726Z,16.77
2022-12-18T10:10:50.725Z,19.27
2022-12-18T10:13:31.513Z,17.35
2022-12-18T10:16:12.364Z,17.15
2022-12-18T10:19:02.294Z,17.65
2022-12-18T10:21:50.599Z,15.95
2022-12-18T10:24:39.347Z,14.88
2022-12-18T10:27:17.303Z,16.58
2022-12-18T10:29:47.099Z,16.38
2022-12-18T10:32:26.998Z,18.00
2022-12-18T10:35:00.519Z,17.17
2022-12-18T10:37:31.665Z,16.98
2022-12-18T10:40:22.364Z,18.33
2022-12-18T10:43:13.799Z,16.90
2022-12-18T10:45:42.305Z,16.73
2022-12-18T10:48:21.464Z,17.75
2022-12-18T10:53:41.624Z,17.63
2022-12-18T10:56:09.656Z,18.33
2022-12-18T10:58:39.963Z,16.95
2022-12-18T11:01:15.267Z,16.30
2022-12-18T11:04:03.070Z,17.83
2022-12-18T11:06:31.787Z,17.52
2022-12-18T11:09:14.474Z,16.33
2022-12-18T11:11:54.312Z,16.95
2022-12-18T11:14:48.008Z,15.60
2022-12-18T11:17:32.167Z,18.85
2022-12-18T11:20:04.820Z,16.00
2022-12-18T11:22:34.707Z,17.13
2022-12-18T11:25:32.370Z,16.20
2022-12-18T11:28:00.645Z,16.08
2022-12-18T11:30:37.195Z,16.10
2022-12-18T11:33:20.992Z,16.90
2022-12-18T11:35:57.359Z,15.48
2022-12-18T11:38:38.099Z,15.93
2022-12-18T11:41:12.562Z,15.27
2022-12-18T11:43:52.609Z,16.02
2022-12-18T11:46:28.675Z,15.43
2022-12-18T11:49:14.789Z,15.77
2022-12-18T11:52:06.776Z,16.23
2022-12-18T11:54:34.759Z,16.65
2022-12-18T11:57:29.517Z,16.50
2022-12-18T12:00:17.759Z,16.85
2022-12-18T12:03:10.595Z,16.15
2022-12-18T12:06:09.358Z,15.70
2022-12-18T12:08:37.188Z,15.38
2022-12-18T12:11:24.717Z,15.63
2022-12-18T12:14:10.003Z,16.42
2022-12-18T12:17:08.012Z,15.45
2022-12-18T12:19:47.951Z,16.52
2022-12-18T12:22:59.949Z,15.45
2022-12-18T12:25:50.884Z,15.30
2022-12-18T12:28:49.046Z,16.33
2022-12-18T12:31:49.745Z,17.45
2022-12-18T12:34:45.812Z,16.00
2022-12-18T12:37:34.628Z,16.00
2022-12-18T12:40:26.872Z,16.77
2022-12-18T12:43:17.695Z,16.98
2022-12-18T12:46:03.652Z,16.27
2022-12-18T12:48:50.760Z,15.20
2022-12-18T12:51:30.166Z,16.02
2022-12-18T12:54:00.150Z,17.15
2022-12-18T12:57:13.071Z,16.52
2022-12-18T12:59:51.300Z,16.77
2022-12-18T13:02:41.553Z,15.10
2022-12-18T13:05:27.844Z,14.80
2022-12-18T13:08:04.699Z,15.82
2022-12-18T13:10:43.405Z,17.52
2022-12-18T13:13:16.471Z,16.20
2022-12-18T13:15:47.670Z,16.50
2022-12-18T13:18:28.051Z,17.40
2022-12-18T13:21:01.321Z,14.98
2022-12-18T13:23:39.415Z,15.80
2022-12-18T13:26:24.695Z,16.77
2022-12-18T13:28:57.818Z,17.10
2022-12-18T13:31:41.088Z,16.75
2022-12-18T13:34:27.617Z,18.08
2022-12-18T13:37:12.509Z,19.55
2022-12-18T13:39:40.893Z,17.92
2022-12-18T13:42:09.726Z,17.60
2022-12-18T13:44:43.199Z,18.30
2022-12-18T13:47:35.277Z,18.55
2022-12-18T13:50:12.342Z,18.33
2022-12-18T13:52:41.917Z,17.30
2022-12-18T13:55:20.780Z,18.10
2022-12-18T13:57:49.499Z,17.83
2022-12-18T14:00:34.332Z,18.42
2022-12-18T14:03:39.001Z,16.98
2022-12-18T14:06:10.992Z,18.13
2022-12-18T14:08:45.263Z,17.98
2022-12-18T14:11:26.448Z,17.85
2022-12-18T14:13:54.938Z,17.45
2022-12-18T14:16:24.008Z,18.73
2022-12-18T14:19:02.680Z,18.80
2022-12-18T14:21:55.151Z,17.98
2022-12-18T14:24:23.868Z,17.00
2022-12-18T14:26:52.992Z,17.23
2022-12-18T14:29:30.636Z,16.95
2022-12-18T14:32:19.172Z,17.27
2022-12-18T14:34:49.099Z,20.27
2022-12-18T14:37:22.251Z,17.50
2022-12-18T14:39:56.548Z,19.35
2022-12-18T14:42:24.694Z,22.48
2022-12-18T14:45:13.566Z,21.10
2022-12-18T14:47:40.576Z,18.52
2022-12-18T14:50:16.396Z,19.42
2022-12-18T14:52:44.339Z,21.25
2022-12-18T14:55:20.372Z,20.27
2022-12-18T14:57:53.402Z,21.83
2022-12-18T15:00:24.694Z,25.65
2022-12-18T15:02:58.437Z,18.77
2022-12-18T15:05:31.746Z,20.33
2022-12-18T15:08:02.386Z,19.70
2022-12-18T15:10:33.293Z,19.33
2022-12-18T15:13:02.597Z,18.48
2022-12-18T15:15:41.638Z,17.85
2022-12-18T15:19:26.889Z,18.63
2022-12-18T15:21:54.835Z,18.27
2022-12-18T15:24:29.539Z,17.63
2022-12-18T15:26:58.299Z,18.80
2022-12-18T15:29:27.469Z,21.02
2022-12-18T15:32:04.997Z,19.63
2022-12-18T15:34:36.106Z,22.90
2022-12-18T15:37:04.299Z,22.17
2022-12-18T15:39:32.141Z,23.80
2022-12-18T15:42:18.682Z,22.40
2022-12-18T15:44:47.191Z,19.65
2022-12-18T15:47:15.620Z,19.30
2022-12-18T15:49:44.464Z,19.17
2022-12-18T15:52:15.302Z,18.63
2022-12-18T15:55:01.848Z,15.55
2022-12-18T15:57:29.765Z,17.45
2022-12-18T16:00:00.135Z,17.20
2022-12-18T16:02:31.986Z,18.05
2022-12-18T16:05:00.081Z,18.60
2022-12-18T16:07:30.590Z,17.23
2022-12-18T16:10:01.639Z,16.42
2022-12-18T16:12:30.764Z,16.33
2022-12-18T16:14:58.597Z,17.13
2022-12-18T16:17:26.648Z,17.13
2022-12-18T16:19:54.864Z,15.65
2022-12-18T16:22:26.107Z,15.85
2022-12-18T16:24:55.376Z,17.92
2022-12-18T16:27:25.037Z,18.00
2022-12-18T16:29:52.893Z,17.40
2022-12-18T16:32:23.538Z,17.27
2022-12-18T16:34:52.652Z,17.67
2022-12-18T16:37:21.102Z,17.50
2022-12-18T16:39:49.089Z,17.90
2022-12-18T16:42:21.337Z,19.05
2022-12-18T16:44:50.400Z,18.08
2022-12-18T16:47:19.310Z,18.63
2022-12-18T16:49:47.667Z,18.27
2022-12-18T16:52:17.069Z,19.17
2022-12-18T16:54:46.385Z,19.38
2022-12-18T16:57:21.142Z,19.10
2022-12-18T16:59:57.695Z,20.88
2022-12-18T17:02:30.228Z,20.17
2022-12-18T17:05:00.132Z,19.33
2022-12-18T17:07:29.368Z,20.23
2022-12-18T17:09:57.549Z,26.00
2022-12-18T17:12:26.030Z,20.27
2022-12-18T17:14:53.876Z,19.17
2022-12-18T17:17:23.605Z,19.48
2022-12-18T17:19:53.195Z,19.27
2022-12-18T17:22:22.405Z,20.60
2022-12-18T17:24:53.455Z,20.98
2022-12-18T17:27:21.388Z,20.52
2022-12-18T17:29:49.344Z,25.70
2022-12-18T17:32:18.443Z,20.88
2022-12-18T17:34:46.596Z,20.92
2022-12-18T17:37:16.852Z,21.05
2022-12-18T17:39:44.864Z,20.30
2022-12-18T17:42:15.900Z,19.25
2022-12-18T17:47:14.049Z,21.42
2022-12-18T17:49:42.035Z,20.90
2022-12-18T17:52:10.300Z,20.23
2022-12-18T17:54:40.702Z,21.52
2022-12-18T17:57:08.709Z,19.70
2022-12-18T17:59:36.817Z,22.45
2022-12-18T18:02:04.916Z,21.83
2022-12-18T18:04:32.875Z,20.40
2022-12-18T18:07:00.789Z,21.65
2022-12-18T18:09:28.794Z,24.23
2022-12-18T18:12:16.276Z,23.23
2022-12-18T18:14:45.871Z,22.10
2022-12-18T18:17:14.099Z,20.15
2022-12-18T18:19:44.178Z,20.35
2022-12-18T18:22:16.089Z,21.45
2022-12-18T18:24:45.771Z,19.98
2022-12-18T18:27:14.575Z,21.13
2022-12-18T18:29:42.956Z,21.52
2022-12-18T18:32:10.990Z,20.85
2022-12-18T18:34:41.819Z,20.42
2022-12-18T18:37:11.337Z,21.95
2022-12-18T18:39:39.316Z,21.05
2022-12-18T18:42:07.473Z,21.70
2022-12-18T18:44:36.245Z,20.30
2022-12-18T18:47:04.958Z,20.80
2022-12-18T18:49:36.465Z,22.98
2022-12-18T18:52:04.396Z,23.83
2022-12-18T18:54:32.497Z,24.38
2022-12-18T18:59:51.826Z,21.70
2022-12-18T19:02:20.532Z,22.10
2022-12-18T19:04:48.830Z,21.17
2022-12-18T19:07:29.921Z,21.15
2022-12-18T19:10:05.214Z,22.35
2022-12-18T19:12:52.971Z,20.27
2022-12-18T19:15:23.054Z,22.77
2022-12-18T19:17:51.018Z,21.70
2022-12-18T19:20:19.412Z,21.77
2022-12-18T19:22:55.204Z,21.42
2022-12-18T19:25:40.327Z,20.02
2022-12-18T19:28:21.949Z,21.95
2022-12-18T19:30:50.865Z,21.80
2022-12-18T19:36:31.988Z,21.15
2022-12-18T19:39:04.583Z,20.05
2022-12-18T19:41:32.956Z,21.67
2022-12-18T19:44:07.936Z,22.33
2022-12-18T19:46:41.716Z,22.17
2022-12-18T19:49:11.752Z,21.45
2022-12-18T19:51:45.318Z,22.35
2022-12-18T19:54:17.103Z,20.48
2022-12-18T19:56:46.116Z,20.63
2022-12-18T19:59:14.577Z,21.30
2022-12-18T20:01:42.690Z,21.00
2022-12-18T20:04:10.946Z,20.67
2022-12-18T20:06:51.159Z,20.85
2022-12-18T20:09:19.946Z,22.13
2022-12-18T20:11:49.064Z,20.25
2022-12-18T20:14:23.100Z,20.52
2022-12-18T20:16:53.458Z,21.70
2022-12-18T20:19:25.722Z,21.40
2022-12-18T20:21:57.196Z,20.40
2022-12-18T20:24:30.671Z,21.65
2022-12-18T20:26:58.718Z,22.60
2022-12-18T20:29:32.134Z,23.33
2022-12-18T20:32:00.723Z,22.85
2022-12-18T20:34:28.674Z,21.27
2022-12-18T20:36:57.490Z,21.85
2022-12-18T20:39:28.693Z,22.23
2022-12-18T20:41:57.323Z,21.33
2022-12-18T20:44:25.182Z,22.88
2022-12-18T20:46:56.068Z,19.95
2022-12-18T20:49:25.816Z,17.90
2022-12-18T20:51:55.520Z,20.25
2022-12-18T20:54:25.033Z,18.40
2022-12-18T20:56:53.422Z,17.77
2022-12-18T20:59:22.041Z,17.55
2022-12-18T21:01:51.000Z,18.65
2022-12-18T21:04:20.219Z,18.13
2022-12-18T21:06:59.165Z,20.15
2022-12-18T21:09:37.341Z,16.85
2022-12-18T21:12:35.117Z,17.48
2022-12-18T21:15:11.400Z,18.25
2022-12-18T21:17:44.639Z,18.55
2022-12-18T21:20:18.003Z,18.25
2022-12-18T21:22:46.637Z,18.63
2022-12-18T21:25:15.023Z,16.90
2022-12-18T21:27:43.057Z,17.40
2022-12-18T21:30:11.498Z,16.75
2022-12-18T21:32:39.668Z,16.60
2022-12-18T21:35:07.833Z,17.30
2022-12-18T21:37:35.990Z,12.75
2022-12-18T21:40:05.415Z,16.27
2022-12-18T21:42:54.982Z,16.55
2022-12-18T21:45:23.371Z,16.77
2022-12-18T21:47:51.317Z,16.88
2022-12-18T21:50:19.360Z,16.67
2022-12-18T21:52:47.287Z,17.40
2022-12-18T21:55:15.193Z,17.83
2022-12-18T21:57:57.476Z,15.85
2022-12-18T22:00:29.202Z,17.30
2022-12-18T22:03:16.961Z,17.88
2022-12-18T22:05:57.087Z,17.52
2022-12-18T22:08:42.858Z,16.42
2022-12-18T22:11:16.244Z,15.02
2022-12-18T22:13:48.694Z,17.25
2022-12-18T22:16:16.634Z,16.85
2022-12-18T22:18:44.554Z,15.88
2022-12-18T22:21:30.573Z,13.45
2022-12-18T22:24:14.126Z,15.18
2022-12-18T22:26:42.433Z,17.10
2022-12-18T22:29:43.136Z,16.02
2022-12-18T22:32:30.553Z,17.00
2022-12-18T22:35:10.612Z,17.98
2022-12-18T22:37:42.234Z,17.30
2022-12-18T22:40:23.665Z,19.27
2022-12-18T22:42:54.549Z,18.40
2022-12-18T22:45:22.567Z,18.48
2022-12-18T22:47:56.656Z,20.00
2022-12-18T22:50:24.556Z,17.42
2022-12-18T22:52:52.395Z,18.90
2022-12-18T22:55:20.682Z,19.77
2022-12-18T22:57:49.352Z,18.20
2022-12-18T23:00:23.974Z,19.48
2022-12-18T23:03:00.416Z,18.15
2022-12-18T23:05:30.241Z,19.13
2022-12-18T23:07:58.713Z,19.25
2022-12-18T23:10:27.157Z,18.40
2022-12-18T23:12:55.151Z,18.15
2022-12-18T23:15:27.822Z,18.48
2022-12-18T23:17:57.109Z,18.52
2022-12-18T23:20:25.189Z,18.95
2022-12-18T23:22:53.180Z,19.00
2022-12-18T23:25:21.199Z,17.40
2022-12-18T23:27:49.373Z,20.27
2022-12-18T23:30:17.322Z,19.10
2022-12-18T23:32:45.253Z,18.17
2022-12-18T23:35:15.591Z,18.80
2022-12-18T23:37:58.801Z,19.05
2022-12-18T23:40:27.953Z,17.42
2022-12-18T23:42:57.001Z,18.75
2022-12-18T23:45:25.219Z,18.35
2022-12-18T23:47:53.426Z,18.73
2022-12-18T23:50:25.410Z,19.80
2022-12-18T23:53:04.886Z,18.48
2022-12-18T23:55:34.728Z,19.38
2022-12-18T23:58:02.608Z,19.63
